sensor_id;sensor_type;location;lat;lon;timestamp;P1;durP1;ratioP1;P2;durP2;ratioP2
14766;SDS011;7475;53.558;9.970;2023-03-11T00:01:36;17.70;;;13.33;;
14766;SDS011;7475;53.558;9.970;2023-03-11T00:04:04;44.93;;;26.23;;
14766;SDS011;7475;53.558;9.970;2023-03-11T00:06:30;44.60;;;29.33;;
14766;SDS011;7475;53.558;9.970;2023-03-11T00:08:55;27.77;;;16.63;;
14766;SDS011;7475;53.558;9.970;2023-03-11T00:11:20;18.30;;;14.03;;
14766;SDS011;7475;53.558;9.970;2023-03-11T00:13:46;24.40;;;16.30;;
14766;SDS011;7475;53.558;9.970;2023-03-11T00:16:11;21.50;;;15.27;;
14766;SDS011;7475;53.558;9.970;2023-03-11T00:18:37;20.40;;;14.87;;
14766;SDS011;7475;53.558;9.970;2023-03-11T00:21:02;22.07;;;15.53;;
14766;SDS011;7475;53.558;9.970;2023-03-11T00:23:27;18.67;;;14.80;;
14766;SDS011;7475;53.558;9.970;2023-03-11T00:25:52;22.67;;;15.90;;
14766;SDS011;7475;53.558;9.970;2023-03-11T00:28:18;23.17;;;15.53;;
14766;SDS011;7475;53.558;9.970;2023-03-11T00:30:45;21.73;;;16.73;;
14766;SDS011;7475;53.558;9.970;2023-03-11T00:33:11;20.20;;;15.23;;
14766;SDS011;7475;53.558;9.970;2023-03-11T00:35:36;23.63;;;15.97;;
14766;SDS011;7475;53.558;9.970;2023-03-11T00:38:05;21.70;;;16.20;;
14766;SDS011;7475;53.558;9.970;2023-03-11T00:40:31;23.17;;;15.43;;
14766;SDS011;7475;53.558;9.970;2023-03-11T00:42:57;24.40;;;16.93;;
14766;SDS011;7475;53.558;9.970;2023-03-11T00:45:22;23.77;;;16.17;;
14766;SDS011;7475;53.558;9.970;2023-03-11T00:47:47;22.43;;;15.40;;
14766;SDS011;7475;53.558;9.970;2023-03-11T00:50:20;23.10;;;16.43;;
14766;SDS011;7475;53.558;9.970;2023-03-11T00:52:46;22.73;;;16.73;;
14766;SDS011;7475;53.558;9.970;2023-03-11T00:55:12;24.60;;;17.10;;
14766;SDS011;7475;53.558;9.970;2023-03-11T00:57:38;21.80;;;16.00;;
14766;SDS011;7475;53.558;9.970;2023-03-11T01:00:04;21.37;;;15.17;;
14766;SDS011;7475;53.558;9.970;2023-03-11T01:02:30;24.93;;;17.10;;
14766;SDS011;7475;53.558;9.970;2023-03-11T01:04:56;22.77;;;15.30;;
14766;SDS011;7475;53.558;9.970;2023-03-11T01:07:21;23.40;;;16.97;;
14766;SDS011;7475;53.558;9.970;2023-03-11T01:09:47;22.80;;;16.10;;
14766;SDS011;7475;53.558;9.970;2023-03-11T01:12:12;21.30;;;15.90;;
14766;SDS011;7475;53.558;9.970;2023-03-11T01:14:37;24.33;;;16.47;;
14766;SDS011;7475;53.558;9.970;2023-03-11T01:17:02;20.97;;;16.13;;
14766;SDS011;7475;53.558;9.970;2023-03-11T01:19:28;22.63;;;15.27;;
14766;SDS011;7475;53.558;9.970;2023-03-11T01:21:53;23.27;;;16.80;;
14766;SDS011;7475;53.558;9.970;2023-03-11T01:24:18;23.50;;;16.73;;
14766;SDS011;7475;53.558;9.970;2023-03-11T01:26:43;22.27;;;16.17;;
14766;SDS011;7475;53.558;9.970;2023-03-11T01:29:09;24.40;;;15.63;;
14766;SDS011;7475;53.558;9.970;2023-03-11T01:31:34;22.83;;;16.57;;
14766;SDS011;7475;53.558;9.970;2023-03-11T01:33:59;21.33;;;13.90;;
14766;SDS011;7475;53.558;9.970;2023-03-11T01:36:24;20.70;;;15.37;;
14766;SDS011;7475;53.558;9.970;2023-03-11T01:38:50;19.83;;;15.10;;
14766;SDS011;7475;53.558;9.970;2023-03-11T01:41:15;20.20;;;14.87;;
14766;SDS011;7475;53.558;9.970;2023-03-11T01:46:29;20.23;;;14.07;;
14766;SDS011;7475;53.558;9.970;2023-03-11T01:48:58;19.43;;;13.30;;
14766;SDS011;7475;53.558;9.970;2023-03-11T01:51:26;19.37;;;14.27;;
14766;SDS011;7475;53.558;9.970;2023-03-11T01:53:52;18.63;;;14.20;;
14766;SDS011;7475;53.558;9.970;2023-03-11T01:56:19;22.73;;;15.07;;
14766;SDS011;7475;53.558;9.970;2023-03-11T01:58:45;21.00;;;15.67;;
14766;SDS011;7475;53.558;9.970;2023-03-11T02:01:13;20.87;;;15.50;;
14766;SDS011;7475;53.558;9.970;2023-03-11T02:03:39;20.73;;;15.23;;
14766;SDS011;7475;53.558;9.970;2023-03-11T02:06:06;25.83;;;16.30;;
14766;SDS011;7475;53.558;9.970;2023-03-11T02:08:33;21.67;;;14.37;;
14766;SDS011;7475;53.558;9.970;2023-03-11T02:10:58;20.93;;;14.80;;
14766;SDS011;7475;53.558;9.970;2023-03-11T02:13:25;23.20;;;16.23;;
14766;SDS011;7475;53.558;9.970;2023-03-11T02:15:50;23.07;;;15.87;;
14766;SDS011;7475;53.558;9.970;2023-03-11T02:18:16;23.43;;;15.43;;
14766;SDS011;7475;53.558;9.970;2023-03-11T02:23:10;22.80;;;16.37;;
14766;SDS011;7475;53.558;9.970;2023-03-11T02:25:39;23.77;;;16.20;;
14766;SDS011;7475;53.558;9.970;2023-03-11T02:28:07;23.23;;;14.70;;
14766;SDS011;7475;53.558;9.970;2023-03-11T02:30:34;20.93;;;15.60;;
14766;SDS011;7475;53.558;9.970;2023-03-11T02:33:00;21.47;;;15.47;;
14766;SDS011;7475;53.558;9.970;2023-03-11T02:35:26;23.03;;;15.17;;
14766;SDS011;7475;53.558;9.970;2023-03-11T02:37:52;20.60;;;14.63;;
14766;SDS011;7475;53.558;9.970;2023-03-11T02:42:45;20.37;;;14.53;;
14766;SDS011;7475;53.558;9.970;2023-03-11T02:45:11;19.60;;;14.80;;
14766;SDS011;7475;53.558;9.970;2023-03-11T02:47:38;21.00;;;14.90;;
14766;SDS011;7475;53.558;9.970;2023-03-11T02:50:04;18.17;;;14.37;;
14766;SDS011;7475;53.558;9.970;2023-03-11T02:52:31;21.43;;;15.37;;
14766;SDS011;7475;53.558;9.970;2023-03-11T02:54:57;21.07;;;13.97;;
14766;SDS011;7475;53.558;9.970;2023-03-11T02:57:22;24.83;;;14.27;;
14766;SDS011;7475;53.558;9.970;2023-03-11T02:59:47;23.20;;;14.33;;
14766;SDS011;7475;53.558;9.970;2023-03-11T03:02:13;17.70;;;12.80;;
14766;SDS011;7475;53.558;9.970;2023-03-11T03:04:38;19.43;;;14.27;;
14766;SDS011;7475;53.558;9.970;2023-03-11T03:07:03;18.43;;;13.47;;
14766;SDS011;7475;53.558;9.970;2023-03-11T03:09:28;19.00;;;13.63;;
14766;SDS011;7475;53.558;9.970;2023-03-11T03:11:54;18.23;;;13.33;;
14766;SDS011;7475;53.558;9.970;2023-03-11T03:14:19;20.83;;;13.77;;
14766;SDS011;7475;53.558;9.970;2023-03-11T03:16:44;18.37;;;13.63;;
14766;SDS011;7475;53.558;9.970;2023-03-11T03:19:09;17.13;;;13.03;;
14766;SDS011;7475;53.558;9.970;2023-03-11T03:21:34;19.73;;;13.17;;
14766;SDS011;7475;53.558;9.970;2023-03-11T03:24:00;17.20;;;11.93;;
14766;SDS011;7475;53.558;9.970;2023-03-11T03:26:25;19.27;;;13.63;;
14766;SDS011;7475;53.558;9.970;2023-03-11T03:28:50;17.20;;;13.43;;
14766;SDS011;7475;53.558;9.970;2023-03-11T03:31:15;18.80;;;13.60;;
14766;SDS011;7475;53.558;9.970;2023-03-11T03:33:41;19.27;;;12.77;;
14766;SDS011;7475;53.558;9.970;2023-03-11T03:36:07;16.83;;;12.03;;
14766;SDS011;7475;53.558;9.970;2023-03-11T03:38:33;20.20;;;12.57;;
14766;SDS011;7475;53.558;9.970;2023-03-11T03:40:58;18.90;;;12.90;;
14766;SDS011;7475;53.558;9.970;2023-03-11T03:43:23;16.23;;;12.40;;
14766;SDS011;7475;53.558;9.970;2023-03-11T03:45:59;17.33;;;12.30;;
14766;SDS011;7475;53.558;9.970;2023-03-11T03:48:24;17.93;;;12.67;;
14766;SDS011;7475;53.558;9.970;2023-03-11T03:50:49;18.13;;;12.90;;
14766;SDS011;7475;53.558;9.970;2023-03-11T03:53:15;18.87;;;13.50;;
14766;SDS011;7475;53.558;9.970;2023-03-11T03:55:40;18.57;;;13.37;;
14766;SDS011;7475;53.558;9.970;2023-03-11T03:58:05;15.37;;;12.53;;
14766;SDS011;7475;53.558;9.970;2023-03-11T04:00:31;20.70;;;12.83;;
14766;SDS011;7475;53.558;9.970;2023-03-11T04:02:56;16.20;;;11.20;;
14766;SDS011;7475;53.558;9.970;2023-03-11T04:05:22;15.60;;;11.10;;
14766;SDS011;7475;53.558;9.970;2023-03-11T04:07:50;15.37;;;11.13;;
14766;SDS011;7475;53.558;9.970;2023-03-11T04:10:15;16.63;;;11.90;;
14766;SDS011;7475;53.558;9.970;2023-03-11T04:12:41;16.07;;;11.70;;
14766;SDS011;7475;53.558;9.970;2023-03-11T04:15:06;16.53;;;11.67;;
14766;SDS011;7475;53.558;9.970;2023-03-11T04:17:31;18.83;;;12.77;;
14766;SDS011;7475;53.558;9.970;2023-03-11T04:19:57;14.43;;;10.20;;
14766;SDS011;7475;53.558;9.970;2023-03-11T04:22:22;13.83;;;10.10;;
14766;SDS011;7475;53.558;9.970;2023-03-11T04:24:47;16.03;;;10.50;;
14766;SDS011;7475;53.558;9.970;2023-03-11T04:27:12;12.33;;;9.90;;
14766;SDS011;7475;53.558;9.970;2023-03-11T04:29:38;13.37;;;10.93;;
14766;SDS011;7475;53.558;9.970;2023-03-11T04:32:03;16.43;;;11.40;;
14766;SDS011;7475;53.558;9.970;2023-03-11T04:34:29;16.00;;;11.23;;
14766;SDS011;7475;53.558;9.970;2023-03-11T04:36:54;12.50;;;9.40;;
14766;SDS011;7475;53.558;9.970;2023-03-11T04:39:20;15.80;;;11.03;;
14766;SDS011;7475;53.558;9.970;2023-03-11T04:41:45;13.60;;;10.57;;
14766;SDS011;7475;53.558;9.970;2023-03-11T04:44:10;15.90;;;11.97;;
14766;SDS011;7475;53.558;9.970;2023-03-11T04:46:35;18.00;;;11.40;;
14766;SDS011;7475;53.558;9.970;2023-03-11T04:49:01;16.70;;;10.60;;
14766;SDS011;7475;53.558;9.970;2023-03-11T04:51:26;17.90;;;11.13;;
14766;SDS011;7475;53.558;9.970;2023-03-11T04:53:51;15.47;;;10.77;;
14766;SDS011;7475;53.558;9.970;2023-03-11T04:56:17;15.03;;;10.70;;
14766;SDS011;7475;53.558;9.970;2023-03-11T04:58:42;15.90;;;11.03;;
14766;SDS011;7475;53.558;9.970;2023-03-11T05:01:07;17.17;;;10.67;;
14766;SDS011;7475;53.558;9.970;2023-03-11T05:03:32;14.57;;;11.23;;
14766;SDS011;7475;53.558;9.970;2023-03-11T05:05:57;18.47;;;10.73;;
14766;SDS011;7475;53.558;9.970;2023-03-11T05:08:24;15.00;;;11.00;;
14766;SDS011;7475;53.558;9.970;2023-03-11T05:10:50;17.27;;;11.13;;
14766;SDS011;7475;53.558;9.970;2023-03-11T05:13:15;17.43;;;11.00;;
14766;SDS011;7475;53.558;9.970;2023-03-11T05:15:40;15.17;;;10.50;;
14766;SDS011;7475;53.558;9.970;2023-03-11T05:18:06;15.83;;;10.87;;
14766;SDS011;7475;53.558;9.970;2023-03-11T05:20:31;15.27;;;10.47;;
14766;SDS011;7475;53.558;9.970;2023-03-11T05:22:57;16.03;;;11.07;;
14766;SDS011;7475;53.558;9.970;2023-03-11T05:25:22;16.20;;;10.77;;
14766;SDS011;7475;53.558;9.970;2023-03-11T05:27:47;20.80;;;11.03;;
14766;SDS011;7475;53.558;9.970;2023-03-11T05:30:12;13.20;;;9.70;;
14766;SDS011;7475;53.558;9.970;2023-03-11T05:32:39;16.90;;;10.47;;
14766;SDS011;7475;53.558;9.970;2023-03-11T05:35:04;15.97;;;10.83;;
14766;SDS011;7475;53.558;9.970;2023-03-11T05:37:30;17.97;;;10.67;;
14766;SDS011;7475;53.558;9.970;2023-03-11T05:39:55;16.90;;;10.73;;
14766;SDS011;7475;53.558;9.970;2023-03-11T05:42:20;15.23;;;10.07;;
14766;SDS011;7475;53.558;9.970;2023-03-11T05:44:45;18.43;;;11.53;;
14766;SDS011;7475;53.558;9.970;2023-03-11T05:47:10;15.30;;;10.50;;
14766;SDS011;7475;53.558;9.970;2023-03-11T05:49:36;19.73;;;10.67;;
14766;SDS011;7475;53.558;9.970;2023-03-11T05:52:01;17.30;;;10.67;;
14766;SDS011;7475;53.558;9.970;2023-03-11T05:54:26;21.17;;;11.50;;
14766;SDS011;7475;53.558;9.970;2023-03-11T05:56:52;19.73;;;11.00;;
14766;SDS011;7475;53.558;9.970;2023-03-11T05:59:17;17.23;;;11.23;;
14766;SDS011;7475;53.558;9.970;2023-03-11T06:01:42;15.87;;;10.73;;
14766;SDS011;7475;53.558;9.970;2023-03-11T06:04:08;15.27;;;11.30;;
14766;SDS011;7475;53.558;9.970;2023-03-11T06:06:33;15.60;;;10.40;;
14766;SDS011;7475;53.558;9.970;2023-03-11T06:08:59;20.03;;;12.47;;
14766;SDS011;7475;53.558;9.970;2023-03-11T06:11:24;17.20;;;11.90;;
14766;SDS011;7475;53.558;9.970;2023-03-11T06:13:53;16.43;;;10.77;;
14766;SDS011;7475;53.558;9.970;2023-03-11T06:16:18;17.17;;;11.13;;
14766;SDS011;7475;53.558;9.970;2023-03-11T06:18:44;16.37;;;10.90;;
14766;SDS011;7475;53.558;9.970;2023-03-11T06:21:09;15.70;;;10.70;;
14766;SDS011;7475;53.558;9.970;2023-03-11T06:23:39;17.17;;;10.80;;
14766;SDS011;7475;53.558;9.970;2023-03-11T06:26:05;18.47;;;10.90;;
14766;SDS011;7475;53.558;9.970;2023-03-11T06:28:30;15.67;;;11.30;;
14766;SDS011;7475;53.558;9.970;2023-03-11T06:30:56;19.33;;;10.30;;
14766;SDS011;7475;53.558;9.970;2023-03-11T06:33:22;16.80;;;11.13;;
14766;SDS011;7475;53.558;9.970;2023-03-11T06:35:55;14.80;;;10.73;;
14766;SDS011;7475;53.558;9.970;2023-03-11T06:38:20;13.23;;;9.77;;
14766;SDS011;7475;53.558;9.970;2023-03-11T06:40:45;15.10;;;9.77;;
14766;SDS011;7475;53.558;9.970;2023-03-11T06:43:10;13.33;;;9.40;;
14766;SDS011;7475;53.558;9.970;2023-03-11T06:45:35;11.40;;;9.07;;
14766;SDS011;7475;53.558;9.970;2023-03-11T06:48:00;10.90;;;8.73;;
14766;SDS011;7475;53.558;9.970;2023-03-11T06:50:26;12.03;;;8.67;;
14766;SDS011;7475;53.558;9.970;2023-03-11T06:52:52;9.60;;;7.33;;
14766;SDS011;7475;53.558;9.970;2023-03-11T06:55:17;14.57;;;8.97;;
14766;SDS011;7475;53.558;9.970;2023-03-11T06:57:43;12.90;;;8.87;;
14766;SDS011;7475;53.558;9.970;2023-03-11T07:00:09;11.43;;;8.30;;
14766;SDS011;7475;53.558;9.970;2023-03-11T07:02:37;8.87;;;7.23;;
14766;SDS011;7475;53.558;9.970;2023-03-11T07:05:03;13.17;;;8.30;;
14766;SDS011;7475;53.558;9.970;2023-03-11T07:07:28;10.97;;;8.60;;
14766;SDS011;7475;53.558;9.970;2023-03-11T07:09:54;11.93;;;8.47;;
14766;SDS011;7475;53.558;9.970;2023-03-11T07:12:20;12.43;;;7.87;;
14766;SDS011;7475;53.558;9.970;2023-03-11T07:14:46;10.83;;;8.30;;
14766;SDS011;7475;53.558;9.970;2023-03-11T07:17:12;10.47;;;7.27;;
14766;SDS011;7475;53.558;9.970;2023-03-11T07:19:37;10.00;;;6.77;;
14766;SDS011;7475;53.558;9.970;2023-03-11T07:22:02;9.17;;;6.60;;
14766;SDS011;7475;53.558;9.970;2023-03-11T07:24:27;7.57;;;6.50;;
14766;SDS011;7475;53.558;9.970;2023-03-11T07:26:53;9.67;;;6.80;;
14766;SDS011;7475;53.558;9.970;2023-03-11T07:29:18;9.40;;;7.20;;
14766;SDS011;7475;53.558;9.970;2023-03-11T07:31:44;8.50;;;6.73;;
14766;SDS011;7475;53.558;9.970;2023-03-11T07:34:10;8.50;;;6.27;;
14766;SDS011;7475;53.558;9.970;2023-03-11T07:36:35;7.10;;;6.40;;
14766;SDS011;7475;53.558;9.970;2023-03-11T07:39:02;9.10;;;5.80;;
14766;SDS011;7475;53.558;9.970;2023-03-11T07:41:29;7.73;;;6.00;;
14766;SDS011;7475;53.558;9.970;2023-03-11T07:43:55;6.63;;;5.33;;
14766;SDS011;7475;53.558;9.970;2023-03-11T07:46:20;5.87;;;4.90;;
14766;SDS011;7475;53.558;9.970;2023-03-11T07:48:47;6.80;;;4.53;;
14766;SDS011;7475;53.558;9.970;2023-03-11T07:51:14;5.73;;;4.80;;
14766;SDS011;7475;53.558;9.970;2023-03-11T07:53:42;5.27;;;4.77;;
14766;SDS011;7475;53.558;9.970;2023-03-11T07:56:08;5.93;;;4.60;;
14766;SDS011;7475;53.558;9.970;2023-03-11T07:58:34;8.37;;;4.37;;
14766;SDS011;7475;53.558;9.970;2023-03-11T08:01:06;7.40;;;4.80;;
14766;SDS011;7475;53.558;9.970;2023-03-11T08:03:32;6.55;;;4.53;;
14766;SDS011;7475;53.558;9.970;2023-03-11T08:05:57;5.80;;;4.57;;
14766;SDS011;7475;53.558;9.970;2023-03-11T08:08:22;5.65;;;3.67;;
14766;SDS011;7475;53.558;9.970;2023-03-11T08:10:47;5.85;;;3.72;;
14766;SDS011;7475;53.558;9.970;2023-03-11T08:13:13;4.85;;;3.97;;
14766;SDS011;7475;53.558;9.970;2023-03-11T08:15:38;9.95;;;6.15;;
14766;SDS011;7475;53.558;9.970;2023-03-11T08:18:03;7.95;;;5.05;;
14766;SDS011;7475;53.558;9.970;2023-03-11T08:20:29;5.93;;;4.18;;
14766;SDS011;7475;53.558;9.970;2023-03-11T08:22:54;5.20;;;3.53;;
14766;SDS011;7475;53.558;9.970;2023-03-11T08:25:19;4.82;;;3.30;;
14766;SDS011;7475;53.558;9.970;2023-03-11T08:27:44;3.70;;;3.35;;
14766;SDS011;7475;53.558;9.970;2023-03-11T08:30:10;7.70;;;3.10;;
14766;SDS011;7475;53.558;9.970;2023-03-11T08:32:36;4.07;;;2.97;;
14766;SDS011;7475;53.558;9.970;2023-03-11T08:35:01;3.70;;;3.13;;
14766;SDS011;7475;53.558;9.970;2023-03-11T08:37:26;3.58;;;2.97;;
14766;SDS011;7475;53.558;9.970;2023-03-11T08:39:51;3.87;;;3.47;;
14766;SDS011;7475;53.558;9.970;2023-03-11T08:42:16;6.03;;;2.90;;
14766;SDS011;7475;53.558;9.970;2023-03-11T08:44:42;6.68;;;3.97;;
14766;SDS011;7475;53.558;9.970;2023-03-11T08:47:07;5.40;;;3.00;;
14766;SDS011;7475;53.558;9.970;2023-03-11T08:49:32;5.15;;;3.17;;
14766;SDS011;7475;53.558;9.970;2023-03-11T08:51:57;4.55;;;2.83;;
14766;SDS011;7475;53.558;9.970;2023-03-11T08:54:23;4.80;;;3.23;;
14766;SDS011;7475;53.558;9.970;2023-03-11T08:56:48;3.33;;;2.50;;
14766;SDS011;7475;53.558;9.970;2023-03-11T08:59:13;4.35;;;2.40;;
14766;SDS011;7475;53.558;9.970;2023-03-11T09:01:38;4.70;;;3.78;;
14766;SDS011;7475;53.558;9.970;2023-03-11T09:04:04;3.78;;;2.45;;
14766;SDS011;7475;53.558;9.970;2023-03-11T09:06:29;4.95;;;2.25;;
14766;SDS011;7475;53.558;9.970;2023-03-11T09:08:55;3.65;;;2.17;;
14766;SDS011;7475;53.558;9.970;2023-03-11T09:11:20;3.10;;;2.15;;
14766;SDS011;7475;53.558;9.970;2023-03-11T09:13:46;5.85;;;3.80;;
14766;SDS011;7475;53.558;9.970;2023-03-11T09:16:16;4.40;;;2.10;;
14766;SDS011;7475;53.558;9.970;2023-03-11T09:18:41;4.80;;;2.65;;
14766;SDS011;7475;53.558;9.970;2023-03-11T09:21:07;6.28;;;2.55;;
14766;SDS011;7475;53.558;9.970;2023-03-11T09:23:32;3.22;;;2.15;;
14766;SDS011;7475;53.558;9.970;2023-03-11T09:25:57;4.65;;;2.20;;
14766;SDS011;7475;53.558;9.970;2023-03-11T09:28:22;4.27;;;2.43;;
14766;SDS011;7475;53.558;9.970;2023-03-11T09:30:48;2.95;;;1.95;;
14766;SDS011;7475;53.558;9.970;2023-03-11T09:33:13;4.10;;;1.83;;
14766;SDS011;7475;53.558;9.970;2023-03-11T09:35:41;3.55;;;1.90;;
14766;SDS011;7475;53.558;9.970;2023-03-11T09:38:07;5.57;;;1.93;;
14766;SDS011;7475;53.558;9.970;2023-03-11T09:40:43;5.53;;;2.00;;
14766;SDS011;7475;53.558;9.970;2023-03-11T09:43:14;3.78;;;2.00;;
14766;SDS011;7475;53.558;9.970;2023-03-11T09:45:44;3.08;;;1.58;;
14766;SDS011;7475;53.558;9.970;2023-03-11T09:48:23;4.90;;;1.77;;
14766;SDS011;7475;53.558;9.970;2023-03-11T09:50:52;3.47;;;1.90;;
14766;SDS011;7475;53.558;9.970;2023-03-11T09:53:31;5.13;;;2.08;;
14766;SDS011;7475;53.558;9.970;2023-03-11T09:56:03;2.85;;;1.90;;
14766;SDS011;7475;53.558;9.970;2023-03-11T10:01:01;4.15;;;1.83;;
14766;SDS011;7475;53.558;9.970;2023-03-11T10:03:28;3.53;;;2.83;;
14766;SDS011;7475;53.558;9.970;2023-03-11T10:05:57;3.85;;;2.50;;
14766;SDS011;7475;53.558;9.970;2023-03-11T10:08:27;4.57;;;3.63;;
14766;SDS011;7475;53.558;9.970;2023-03-11T10:11:03;4.38;;;2.65;;
14766;SDS011;7475;53.558;9.970;2023-03-11T10:13:44;2.92;;;2.33;;
14766;SDS011;7475;53.558;9.970;2023-03-11T10:16:58;5.88;;;2.30;;
14766;SDS011;7475;53.558;9.970;2023-03-11T10:21:34;3.37;;;2.83;;
14766;SDS011;7475;53.558;9.970;2023-03-11T10:26:45;3.97;;;3.00;;
14766;SDS011;7475;53.558;9.970;2023-03-11T10:32:33;3.70;;;2.50;;
14766;SDS011;7475;53.558;9.970;2023-03-11T10:35:17;5.38;;;4.10;;
14766;SDS011;7475;53.558;9.970;2023-03-11T10:37:22;4.07;;;2.90;;
14766;SDS011;7475;53.558;9.970;2023-03-11T10:39:48;4.35;;;3.47;;
14766;SDS011;7475;53.558;9.970;2023-03-11T10:42:15;4.97;;;2.65;;
14766;SDS011;7475;53.558;9.970;2023-03-11T10:44:42;5.10;;;4.28;;
14766;SDS011;7475;53.558;9.970;2023-03-11T10:47:12;3.75;;;2.50;;
14766;SDS011;7475;53.558;9.970;2023-03-11T10:49:39;6.03;;;2.78;;
14766;SDS011;7475;53.558;9.970;2023-03-11T10:52:04;4.20;;;2.23;;
14766;SDS011;7475;53.558;9.970;2023-03-11T10:54:31;4.88;;;3.47;;
14766;SDS011;7475;53.558;9.970;2023-03-11T10:57:04;4.20;;;2.65;;
14766;SDS011;7475;53.558;9.970;2023-03-11T10:59:36;4.63;;;2.85;;
14766;SDS011;7475;53.558;9.970;2023-03-11T11:02:21;3.80;;;2.85;;
14766;SDS011;7475;53.558;9.970;2023-03-11T11:04:47;4.63;;;2.65;;
14766;SDS011;7475;53.558;9.970;2023-03-11T11:07:30;3.38;;;2.40;;
14766;SDS011;7475;53.558;9.970;2023-03-11T11:12:36;5.45;;;4.45;;
14766;SDS011;7475;53.558;9.970;2023-03-11T11:15:01;6.10;;;3.47;;
14766;SDS011;7475;53.558;9.970;2023-03-11T11:17:30;4.60;;;3.20;;
14766;SDS011;7475;53.558;9.970;2023-03-11T11:19:56;3.50;;;2.38;;
14766;SDS011;7475;53.558;9.970;2023-03-11T11:22:22;10.45;;;3.83;;
14766;SDS011;7475;53.558;9.970;2023-03-11T11:24:48;5.03;;;3.08;;
14766;SDS011;7475;53.558;9.970;2023-03-11T11:27:19;8.18;;;7.15;;
14766;SDS011;7475;53.558;9.970;2023-03-11T11:29:46;6.70;;;3.78;;
14766;SDS011;7475;53.558;9.970;2023-03-11T11:32:16;5.13;;;3.45;;
14766;SDS011;7475;53.558;9.970;2023-03-11T11:34:51;5.90;;;3.22;;
14766;SDS011;7475;53.558;9.970;2023-03-11T11:37:17;4.43;;;3.13;;
14766;SDS011;7475;53.558;9.970;2023-03-11T11:39:52;5.27;;;3.70;;
14766;SDS011;7475;53.558;9.970;2023-03-11T11:42:20;4.72;;;2.28;;
14766;SDS011;7475;53.558;9.970;2023-03-11T11:44:46;4.90;;;2.80;;
14766;SDS011;7475;53.558;9.970;2023-03-11T11:47:22;3.80;;;1.90;;
14766;SDS011;7475;53.558;9.970;2023-03-11T11:49:49;3.72;;;2.60;;
14766;SDS011;7475;53.558;9.970;2023-03-11T11:52:21;4.68;;;1.85;;
14766;SDS011;7475;53.558;9.970;2023-03-11T11:57:25;3.13;;;1.63;;
14766;SDS011;7475;53.558;9.970;2023-03-11T11:59:51;4.57;;;1.67;;
14766;SDS011;7475;53.558;9.970;2023-03-11T12:05:11;3.78;;;2.95;;
14766;SDS011;7475;53.558;9.970;2023-03-11T12:15:16;7.22;;;1.50;;
14766;SDS011;7475;53.558;9.970;2023-03-11T12:17:42;5.65;;;1.50;;
14766;SDS011;7475;53.558;9.970;2023-03-11T12:25:12;2.70;;;1.55;;
14766;SDS011;7475;53.558;9.970;2023-03-11T12:28:09;9.05;;;3.20;;
14766;SDS011;7475;53.558;9.970;2023-03-11T12:30:40;5.00;;;1.48;;
14766;SDS011;7475;53.558;9.970;2023-03-11T12:35:53;3.28;;;1.70;;
14766;SDS011;7475;53.558;9.970;2023-03-11T12:38:23;2.67;;;1.20;;
14766;SDS011;7475;53.558;9.970;2023-03-11T12:40:56;5.43;;;2.40;;
14766;SDS011;7475;53.558;9.970;2023-03-11T12:43:27;5.95;;;1.88;;
14766;SDS011;7475;53.558;9.970;2023-03-11T12:46:11;4.03;;;2.03;;
14766;SDS011;7475;53.558;9.970;2023-03-11T12:48:57;9.80;;;5.50;;
14766;SDS011;7475;53.558;9.970;2023-03-11T12:56:44;7.20;;;4.00;;
14766;SDS011;7475;53.558;9.970;2023-03-11T13:05:12;2.90;;;1.10;;
14766;SDS011;7475;53.558;9.970;2023-03-11T13:09:43;2.97;;;1.20;;
14766;SDS011;7475;53.558;9.970;2023-03-11T13:17:36;2.88;;;1.30;;
14766;SDS011;7475;53.558;9.970;2023-03-11T13:20:01;13.57;;;7.50;;
14766;SDS011;7475;53.558;9.970;2023-03-11T13:22:43;13.70;;;7.25;;
14766;SDS011;7475;53.558;9.970;2023-03-11T13:25:29;2.65;;;1.15;;
14766;SDS011;7475;53.558;9.970;2023-03-11T13:28:55;3.42;;;1.20;;
14766;SDS011;7475;53.558;9.970;2023-03-11T13:40:48;5.28;;;1.30;;
14766;SDS011;7475;53.558;9.970;2023-03-11T13:43:23;4.22;;;1.23;;
14766;SDS011;7475;53.558;9.970;2023-03-11T13:46:02;3.47;;;1.58;;
14766;SDS011;7475;53.558;9.970;2023-03-11T13:48:30;5.55;;;1.40;;
14766;SDS011;7475;53.558;9.970;2023-03-11T13:51:01;4.80;;;1.92;;
14766;SDS011;7475;53.558;9.970;2023-03-11T13:53:31;3.20;;;1.20;;
14766;SDS011;7475;53.558;9.970;2023-03-11T13:55:57;3.65;;;1.50;;
14766;SDS011;7475;53.558;9.970;2023-03-11T13:58:26;2.28;;;1.27;;
14766;SDS011;7475;53.558;9.970;2023-03-11T14:00:52;3.80;;;0.98;;
14766;SDS011;7475;53.558;9.970;2023-03-11T14:03:18;6.40;;;2.20;;
14766;SDS011;7475;53.558;9.970;2023-03-11T14:05:46;6.00;;;2.22;;
14766;SDS011;7475;53.558;9.970;2023-03-11T14:08:26;3.25;;;1.30;;
14766;SDS011;7475;53.558;9.970;2023-03-11T14:13:17;4.30;;;1.60;;
14766;SDS011;7475;53.558;9.970;2023-03-11T14:18:39;5.50;;;2.95;;
14766;SDS011;7475;53.558;9.970;2023-03-11T14:21:08;4.50;;;2.63;;
14766;SDS011;7475;53.558;9.970;2023-03-11T14:23:38;5.95;;;2.22;;
14766;SDS011;7475;53.558;9.970;2023-03-11T14:26:05;4.75;;;1.90;;
14766;SDS011;7475;53.558;9.970;2023-03-11T14:28:35;6.43;;;2.47;;
14766;SDS011;7475;53.558;9.970;2023-03-11T14:31:03;4.03;;;2.30;;
14766;SDS011;7475;53.558;9.970;2023-03-11T14:33:28;4.00;;;1.33;;
14766;SDS011;7475;53.558;9.970;2023-03-11T14:35:54;5.55;;;2.20;;
14766;SDS011;7475;53.558;9.970;2023-03-11T14:38:21;5.43;;;2.92;;
14766;SDS011;7475;53.558;9.970;2023-03-11T14:41:05;11.05;;;6.00;;
14766;SDS011;7475;53.558;9.970;2023-03-11T14:43:31;11.27;;;5.00;;
14766;SDS011;7475;53.558;9.970;2023-03-11T14:45:57;4.28;;;2.88;;
14766;SDS011;7475;53.558;9.970;2023-03-11T14:48:24;34.72;;;20.38;;
14766;SDS011;7475;53.558;9.970;2023-03-11T14:50:51;12.50;;;6.18;;
14766;SDS011;7475;53.558;9.970;2023-03-11T14:55:47;5.72;;;3.15;;
14766;SDS011;7475;53.558;9.970;2023-03-11T15:00:48;5.78;;;1.88;;
14766;SDS011;7475;53.558;9.970;2023-03-11T15:03:30;5.07;;;1.50;;
14766;SDS011;7475;53.558;9.970;2023-03-11T15:06:07;2.47;;;1.27;;
14766;SDS011;7475;53.558;9.970;2023-03-11T15:08:40;5.90;;;3.30;;
14766;SDS011;7475;53.558;9.970;2023-03-11T15:11:12;7.47;;;1.67;;
14766;SDS011;7475;53.558;9.970;2023-03-11T15:13:39;4.70;;;1.70;;
14766;SDS011;7475;53.558;9.970;2023-03-11T15:16:05;4.80;;;1.30;;
14766;SDS011;7475;53.558;9.970;2023-03-11T15:18:32;4.57;;;2.42;;
14766;SDS011;7475;53.558;9.970;2023-03-11T15:21:12;5.38;;;1.83;;
14766;SDS011;7475;53.558;9.970;2023-03-11T15:23:37;3.70;;;1.50;;
14766;SDS011;7475;53.558;9.970;2023-03-11T15:26:03;8.05;;;1.60;;
14766;SDS011;7475;53.558;9.970;2023-03-11T15:31:13;4.18;;;1.83;;
14766;SDS011;7475;53.558;9.970;2023-03-11T15:33:38;9.15;;;4.10;;
14766;SDS011;7475;53.558;9.970;2023-03-11T15:36:04;4.07;;;2.10;;
14766;SDS011;7475;53.558;9.970;2023-03-11T15:38:29;4.75;;;2.25;;
14766;SDS011;7475;53.558;9.970;2023-03-11T15:40:56;4.47;;;1.83;;
14766;SDS011;7475;53.558;9.970;2023-03-11T15:43:25;2.60;;;1.38;;
14766;SDS011;7475;53.558;9.970;2023-03-11T15:45:51;66.35;;;43.05;;
14766;SDS011;7475;53.558;9.970;2023-03-11T15:48:20;8.07;;;3.88;;
14766;SDS011;7475;53.558;9.970;2023-03-11T15:50:52;68.53;;;35.67;;
14766;SDS011;7475;53.558;9.970;2023-03-11T15:53:18;4.78;;;1.65;;
14766;SDS011;7475;53.558;9.970;2023-03-11T15:55:44;2.88;;;1.58;;
14766;SDS011;7475;53.558;9.970;2023-03-11T15:58:10;48.13;;;28.60;;
14766;SDS011;7475;53.558;9.970;2023-03-11T16:00:36;4.57;;;1.42;;
14766;SDS011;7475;53.558;9.970;2023-03-11T16:03:02;9.48;;;2.60;;
14766;SDS011;7475;53.558;9.970;2023-03-11T16:05:28;5.15;;;1.83;;
14766;SDS011;7475;53.558;9.970;2023-03-11T16:07:53;4.90;;;2.08;;
14766;SDS011;7475;53.558;9.970;2023-03-11T16:10:20;6.40;;;3.63;;
14766;SDS011;7475;53.558;9.970;2023-03-11T16:12:45;44.42;;;27.08;;